createdAt,value
2022-12-19T00:01:35.710Z,1.91
2022-12-19T00:04:08.122Z,2.09
2022-12-19T00:06:37.389Z,2.02
2022-12-19T00:09:05.657Z,2.08
2022-12-19T00:11:33.102Z,2.03
2022-12-19T00:14:00.828Z,2.06
2022-12-19T00:16:29.983Z,1.87
2022-12-19T00:18:59.431Z,1.96
2022-12-19T00:21:28.959Z,1.80
2022-12-19T00:23:56.566Z,1.91
2022-12-19T00:26:28.796Z,1.73
2022-12-19T00:28:58.411Z,1.71
2022-12-19T00:31:30.403Z,1.63
2022-12-19T00:33:57.801Z,1.33
2022-12-19T00:36:26.957Z,1.57
2022-12-19T00:38:55.544Z,1.49
2022-12-19T00:41:25.023Z,1.49
2022-12-19T00:43:55.199Z,1.60
2022-12-19T00:46:23.064Z,1.68
2022-12-19T00:48:49.758Z,1.64
2022-12-19T00:51:19.243Z,1.52
2022-12-19T00:53:48.383Z,1.42
2022-12-19T00:56:18.413Z,1.25
2022-12-19T00:58:47.257Z,1.18
2022-12-19T01:01:17.826Z,1.10
2022-12-19T01:04:04.437Z,1.16
2022-12-19T01:06:32.199Z,1.23
2022-12-19T01:09:00.004Z,1.36
2022-12-19T01:11:45.427Z,1.24
2022-12-19T01:14:19.024Z,1.19
2022-12-19T01:16:47.876Z,1.07
2022-12-19T01:19:14.593Z,1.20
2022-12-19T01:21:41.270Z,1.09
2022-12-19T01:24:08.429Z,0.76
2022-12-19T01:26:35.144Z,0.76
2022-12-19T01:29:01.839Z,0.71
2022-12-19T01:31:28.840Z,0.88
2022-12-19T01:33:55.597Z,0.78
2022-12-19T01:36:22.252Z,0.91
2022-12-19T01:38:49.342Z,0.73
2022-12-19T01:41:16.069Z,0.70
2022-12-19T01:44:07.548Z,0.67
2022-12-19T01:46:44.674Z,0.64
2022-12-19T01:49:26.630Z,0.73
2022-12-19T01:51:57.915Z,0.69
2022-12-19T01:54:32.768Z,0.65
2022-12-19T01:56:59.991Z,0.71
2022-12-19T01:59:35.162Z,0.74
2022-12-19T02:02:15.129Z,0.60
2022-12-19T02:04:42.048Z,0.47
2022-12-19T02:07:15.979Z,0.31
2022-12-19T02:09:45.986Z,0.38
2022-12-19T02:12:13.384Z,0.31
2022-12-19T02:14:41.205Z,0.25
2022-12-19T02:17:32.750Z,0.30
2022-12-19T02:20:18.229Z,0.27
2022-12-19T02:23:13.147Z,0.23
2022-12-19T02:25:56.664Z,0.36
2022-12-19T02:28:48.119Z,0.15
2022-12-19T02:31:17.397Z,0.39
2022-12-19T02:33:56.462Z,0.21
2022-12-19T02:36:32.434Z,0.17
2022-12-19T02:39:17.823Z,0.19
2022-12-19T02:41:57.828Z,0.24
2022-12-19T02:44:33.612Z,0.16
2022-12-19T02:47:03.592Z,0.10
2022-12-19T02:49:31.338Z,0.23
2022-12-19T02:52:08.467Z,0.09
2022-12-19T02:54:35.118Z,0.20
2022-12-19T02:57:10.749Z,0.25
2022-12-19T03:00:15.256Z,0.25
2022-12-19T03:03:27.193Z,0.41
2022-12-19T03:05:58.622Z,0.27
2022-12-19T03:08:42.131Z,0.23
2022-12-19T03:11:13.390Z,0.25
2022-12-19T03:13:40.009Z,0.24
2022-12-19T03:16:11.171Z,0.26
2022-12-19T03:18:38.975Z,0.30
2022-12-19T03:21:21.101Z,0.28
2022-12-19T03:23:50.446Z,0.42
2022-12-19T03:26:20.824Z,0.42
2022-12-19T03:28:59.726Z,0.50
2022-12-19T03:31:30.752Z,0.37
2022-12-19T03:34:05.236Z,0.20
2022-12-19T03:36:38.794Z,0.10
2022-12-19T03:39:08.613Z,-0.01
2022-12-19T03:41:56.776Z,0.17
2022-12-19T03:44:27.999Z,-0.15
2022-12-19T03:47:12.976Z,-0.06
2022-12-19T03:49:40.576Z,0.14
2022-12-19T03:52:36.925Z,0.13
2022-12-19T03:55:06.842Z,0.08
2022-12-19T03:57:40.769Z,-0.01
2022-12-19T04:00:15.108Z,-0.01
2022-12-19T04:02:48.139Z,0.06
2022-12-19T04:05:25.090Z,-0.04
2022-12-19T04:07:56.459Z,-0.15
2022-12-19T04:10:26.523Z,-0.14
2022-12-19T04:13:05.575Z,-0.17
2022-12-19T04:15:47.535Z,-0.09
2022-12-19T04:18:16.073Z,-0.14
2022-12-19T04:20:51.240Z,0.00
2022-12-19T04:23:33.466Z,-0.16
2022-12-19T04:26:04.802Z,-0.25
2022-12-19T04:28:54.491Z,-0.19
2022-12-19T04:31:22.057Z,-0.26
2022-12-19T04:33:48.816Z,-0.21
2022-12-19T04:36:15.629Z,-0.41
2022-12-19T04:38:42.510Z,-0.35
2022-12-19T04:41:09.200Z,-0.29
2022-12-19T04:43:35.955Z,-0.29
2022-12-19T04:46:03.095Z,-0.38
2022-12-19T04:48:29.869Z,-0.29
2022-12-19T04:50:57.055Z,-0.25
2022-12-19T04:53:23.930Z,-0.27
2022-12-19T04:55:50.627Z,-0.26
2022-12-19T04:58:21.814Z,-0.42
2022-12-19T05:00:49.183Z,-0.49
2022-12-19T05:03:15.931Z,-0.36
2022-12-19T05:05:42.679Z,-0.23
2022-12-19T05:08:10.310Z,-0.33
2022-12-19T05:10:37.348Z,-0.39
2022-12-19T05:13:04.118Z,-0.10
2022-12-19T05:15:31.173Z,-0.16
2022-12-19T05:17:58.031Z,-0.31
2022-12-19T05:20:24.794Z,-0.31
2022-12-19T05:22:51.670Z,-0.38
2022-12-19T05:25:18.362Z,-0.40
2022-12-19T05:27:45.027Z,-0.50
2022-12-19T05:30:12.085Z,-0.43
2022-12-19T05:32:38.765Z,-0.46
2022-12-19T05:35:05.842Z,-0.25
2022-12-19T05:37:32.851Z,-0.23
2022-12-19T05:39:59.515Z,-0.26
2022-12-19T05:42:26.675Z,-0.39
2022-12-19T05:44:53.441Z,-0.56
2022-12-19T05:47:20.549Z,-0.38
2022-12-19T05:49:47.198Z,-0.29
2022-12-19T05:52:14.020Z,-0.37
2022-12-19T05:54:40.882Z,-0.48
2022-12-19T05:57:07.564Z,-0.53
2022-12-19T05:59:34.300Z,-0.68
2022-12-19T06:02:01.012Z,-0.69
2022-12-19T06:04:29.990Z,-0.54
2022-12-19T06:06:56.738Z,-0.54
2022-12-19T06:09:23.862Z,-0.73
2022-12-19T06:11:51.151Z,-0.65
2022-12-19T06:14:17.985Z,-0.48
2022-12-19T06:16:44.752Z,-0.62
2022-12-19T06:19:11.618Z,-0.53
2022-12-19T06:21:45.420Z,-0.52
2022-12-19T06:24:14.720Z,-0.29
2022-12-19T06:26:41.875Z,-0.23
2022-12-19T06:29:08.691Z,-0.20
2022-12-19T06:31:35.414Z,-0.38
2022-12-19T06:34:02.632Z,-0.49
2022-12-19T06:36:31.002Z,-0.53
2022-12-19T06:38:58.992Z,-0.33
2022-12-19T06:41:44.947Z,-0.60
2022-12-19T06:44:14.023Z,-0.48
2022-12-19T06:46:41.397Z,-0.51
2022-12-19T06:49:09.528Z,-0.49
2022-12-19T06:51:36.555Z,-0.44
2022-12-19T06:54:03.707Z,0.16
2022-12-19T06:56:37.950Z,-0.01
2022-12-19T06:59:05.938Z,-0.19
2022-12-19T07:01:50.910Z,-0.05
2022-12-19T07:04:23.914Z,-0.24
2022-12-19T07:06:51.138Z,-0.02
2022-12-19T07:09:18.463Z,0.04
2022-12-19T07:11:45.288Z,0.04
2022-12-19T07:14:12.095Z,-0.18
2022-12-19T07:16:39.041Z,0.06
2022-12-19T07:19:07.871Z,-0.34
2022-12-19T07:21:36.797Z,-0.38
2022-12-19T07:24:04.702Z,-0.30
2022-12-19T07:26:31.984Z,-0.43
2022-12-19T07:29:00.567Z,-0.59
2022-12-19T07:31:27.281Z,-0.43
2022-12-19T07:33:53.990Z,-0.16
2022-12-19T07:36:21.055Z,0.05
2022-12-19T07:38:47.766Z,-0.08
2022-12-19T07:41:14.458Z,-0.10
2022-12-19T07:43:41.402Z,-0.42
2022-12-19T07:46:08.226Z,-0.16
2022-12-19T07:48:34.858Z,0.00
2022-12-19T07:51:05.714Z,-0.04
2022-12-19T07:53:32.904Z,0.36
2022-12-19T07:55:59.577Z,0.17
2022-12-19T07:58:26.472Z,-0.06
2022-12-19T08:00:57.886Z,-0.27
2022-12-19T08:03:25.633Z,0.26
2022-12-19T08:05:52.586Z,-0.03
2022-12-19T08:08:19.274Z,0.37
2022-12-19T08:10:45.928Z,0.30
2022-12-19T08:13:13.349Z,0.62
2022-12-19T08:15:39.938Z,0.22
2022-12-19T08:18:06.655Z,0.52
2022-12-19T08:20:33.562Z,0.57
2022-12-19T08:23:01.468Z,0.11
2022-12-19T08:25:28.099Z,0.48
2022-12-19T08:27:55.006Z,0.66
2022-12-19T08:30:21.665Z,0.69
2022-12-19T08:32:48.421Z,0.80
2022-12-19T08:35:15.475Z,0.45
2022-12-19T08:37:42.171Z,0.43
2022-12-19T08:40:09.676Z,0.88
2022-12-19T08:42:37.453Z,1.02
2022-12-19T08:45:04.489Z,0.85
2022-12-19T08:47:31.168Z,1.07
2022-12-19T08:49:57.909Z,0.71
2022-12-19T08:52:25.002Z,0.72
2022-12-19T08:54:51.651Z,0.57
2022-12-19T08:57:18.505Z,0.27
2022-12-19T08:59:45.221Z,0.60
2022-12-19T09:02:12.813Z,0.62
2022-12-19T09:05:59.913Z,0.74
2022-12-19T09:07:26.684Z,0.88
2022-12-19T09:09:54.139Z,0.80
2022-12-19T09:12:20.821Z,0.43
2022-12-19T09:14:47.504Z,0.55
2022-12-19T09:17:14.532Z,0.29
2022-12-19T09:19:44.122Z,0.39
2022-12-19T09:22:14.920Z,0.35
2022-12-19T09:24:41.856Z,0.31
2022-12-19T09:27:08.615Z,0.22
2022-12-19T09:29:35.806Z,0.29
2022-12-19T09:32:03.152Z,0.27
2022-12-19T09:34:38.074Z,0.46
2022-12-19T09:37:17.229Z,0.43
2022-12-19T09:39:48.395Z,0.18
2022-12-19T09:42:31.300Z,0.50
2022-12-19T09:45:08.391Z,0.17
2022-12-19T09:47:42.711Z,0.00
2022-12-19T09:50:47.552Z,0.00
2022-12-19T09:53:40.446Z,0.26
2022-12-19T09:56:14.700Z,0.39
2022-12-19T09:58:46.872Z,0.29
2022-12-19T10:01:22.659Z,0.30
2022-12-19T10:04:00.694Z,0.38
2022-12-19T10:07:22.357Z,0.54
2022-12-19T10:10:08.507Z,0.81
2022-12-19T10:12:47.795Z,0.53
2022-12-19T10:16:14.908Z,0.79
2022-12-19T10:18:56.803Z,1.13
2022-12-19T10:25:10.699Z,1.86
2022-12-19T10:27:59.610Z,1.97
2022-12-19T10:30:32.016Z,1.97
2022-12-19T10:33:05.069Z,1.89
2022-12-19T10:35:41.370Z,1.78
2022-12-19T10:38:19.454Z,1.54
2022-12-19T10:40:49.996Z,1.27
2022-12-19T10:43:39.201Z,1.21
2022-12-19T10:46:17.232Z,1.10
2022-12-19T10:48:43.957Z,0.91
2022-12-19T10:51:13.773Z,1.05
2022-12-19T10:53:40.523Z,1.20
2022-12-19T10:56:23.392Z,1.47
2022-12-19T10:58:57.448Z,1.32
2022-12-19T11:01:30.750Z,1.06
2022-12-19T11:04:25.679Z,1.14
2022-12-19T11:07:07.722Z,1.15
2022-12-19T11:09:40.177Z,1.12
2022-12-19T11:17:05.128Z,1.32
2022-12-19T11:19:39.694Z,1.21
2022-12-19T11:21:03.925Z,1.14
2022-12-19T11:21:30.559Z,1.24
2022-12-19T11:30:35.804Z,1.23
2022-12-19T11:30:47.442Z,1.18
2022-12-19T11:32:44.275Z,1.22
2022-12-19T11:35:37.022Z,1.19
2022-12-19T11:38:06.749Z,1.32
2022-12-19T11:40:37.399Z,1.12
2022-12-19T11:43:46.541Z,0.94
2022-12-19T11:46:40.769Z,1.16
2022-12-19T11:49:30.329Z,1.03
2022-12-19T11:52:04.416Z,0.95
2022-12-19T11:54:38.732Z,0.97
2022-12-19T11:57:12.088Z,1.03
2022-12-19T11:59:40.630Z,0.99
2022-12-19T12:02:42.977Z,1.02
2022-12-19T12:05:37.076Z,0.88
2022-12-19T12:09:25.379Z,0.68
2022-12-19T12:18:32.163Z,0.57
2022-12-19T12:21:01.027Z,0.69
2022-12-19T12:30:59.687Z,0.57
2022-12-19T12:31:11.209Z,0.92
2022-12-19T12:31:16.966Z,0.80
2022-12-19T12:31:30.806Z,0.51
2022-12-19T12:31:48.344Z,0.59
2022-12-19T12:32:59.942Z,0.42
2022-12-19T12:38:50.868Z,0.74
2022-12-19T12:41:49.664Z,0.80
2022-12-19T12:44:18.035Z,0.64
2022-12-19T12:47:15.565Z,0.74
2022-12-19T12:49:46.187Z,0.26
2022-12-19T12:52:20.801Z,0.23
2022-12-19T12:54:49.595Z,0.22
2022-12-19T12:57:35.726Z,0.38
2022-12-19T13:00:20.375Z,0.19
2022-12-19T13:03:12.908Z,0.11
2022-12-19T13:06:34.059Z,0.34
2022-12-19T13:09:21.499Z,0.28
2022-12-19T13:12:28.394Z,0.46
2022-12-19T13:15:20.684Z,0.43
2022-12-19T13:17:47.329Z,0.14
2022-12-19T13:20:18.560Z,0.20
2022-12-19T13:23:04.194Z,-0.03
2022-12-19T13:25:31.348Z,0.01
2022-12-19T13:28:14.916Z,-0.02
2022-12-19T13:31:18.263Z,-0.11
2022-12-19T13:33:56.235Z,0.19
2022-12-19T13:39:50.574Z,0.13
2022-12-19T13:40:00.762Z,-0.08
2022-12-19T13:42:51.751Z,-0.15
2022-12-19T13:45:29.523Z,-0.12
2022-12-19T13:47:58.469Z,-0.05
2022-12-19T13:50:36.550Z,-0.26
2022-12-19T13:53:10.143Z,-0.22
2022-12-19T13:55:40.246Z,-0.37
2022-12-19T13:58:08.495Z,-0.38
2022-12-19T14:00:42.369Z,-0.45
2022-12-19T14:03:18.406Z,-0.46
2022-12-19T14:06:17.615Z,-0.56
2022-12-19T14:08:32.098Z,-0.56
2022-12-19T14:11:42.742Z,-0.66
2022-12-19T14:14:19.192Z,-0.73
2022-12-19T14:16:48.831Z,-0.65
2022-12-19T14:19:42.069Z,-0.68
2022-12-19T14:22:37.219Z,-0.66
2022-12-19T14:25:50.177Z,-0.67
2022-12-19T14:28:18.954Z,-0.72
2022-12-19T14:30:53.777Z,-0.73
2022-12-19T14:33:46.563Z,-0.65
2022-12-19T14:36:31.404Z,-0.53
2022-12-19T14:39:23.551Z,-0.84
2022-12-19T14:42:06.743Z,-0.67
2022-12-19T14:52:35.084Z,-0.78
2022-12-19T14:52:51.708Z,-0.71
2022-12-19T14:54:26.678Z,-0.82
2022-12-19T14:54:47.650Z,-0.88
2022-12-19T14:59:02.597Z,-1.01
2022-12-19T15:01:34.073Z,-1.06
2022-12-19T15:04:53.080Z,-1.09
2022-12-19T15:07:06.768Z,-1.07
2022-12-19T15:11:06.967Z,-1.15
2022-12-19T15:14:53.595Z,-1.15
2022-12-19T15:16:05.291Z,-1.31
2022-12-19T15:18:42.908Z,-1.30
2022-12-19T15:21:14.837Z,-1.37
2022-12-19T15:23:44.200Z,-1.42
2022-12-19T15:26:34.831Z,-1.38
2022-12-19T15:29:03.324Z,-1.47
2022-12-19T15:31:35.130Z,-1.42
2022-12-19T15:34:40.546Z,-1.39
2022-12-19T15:37:13.099Z,-1.42
2022-12-19T15:39:40.864Z,-1.50
2022-12-19T15:42:21.192Z,-1.46
2022-12-19T15:44:49.743Z,-1.42
2022-12-19T15:47:23.355Z,-1.48
2022-12-19T15:49:50.121Z,-1.41
2022-12-19T15:52:18.693Z,-1.50
2022-12-19T15:54:48.715Z,-1.51
2022-12-19T15:57:31.053Z,-1.55
2022-12-19T16:00:01.330Z,-1.54
2022-12-19T16:02:49.652Z,-1.68
2022-12-19T16:05:18.537Z,-1.62
2022-12-19T16:07:45.849Z,-1.65
2022-12-19T16:10:13.380Z,-1.58
2022-12-19T16:12:52.195Z,-1.63
2022-12-19T16:15:26.392Z,-1.68
2022-12-19T16:17:53.958Z,-1.64
2022-12-19T16:20:36.180Z,-1.78
2022-12-19T16:23:03.798Z,-1.54
2022-12-19T16:25:51.393Z,-1.51
2022-12-19T16:28:31.236Z,-1.53
2022-12-19T16:30:59.855Z,-1.65
2022-12-19T16:33:29.672Z,-1.65
2022-12-19T16:36:06.674Z,-1.62
2022-12-19T16:38:34.392Z,-1.89
2022-12-19T16:41:01.901Z,-1.95
2022-12-19T16:43:37.491Z,-1.98
2022-12-19T16:46:07.135Z,-2.03
2022-12-19T16:48:36.058Z,-1.93
2022-12-19T16:51:03.273Z,-1.96
2022-12-19T16:57:22.106Z,-1.89
2022-12-19T16:59:50.563Z,-1.98
2022-12-19T17:02:43.403Z,-1.97
2022-12-19T17:05:18.712Z,-1.95
2022-12-19T17:07:45.859Z,-1.98
2022-12-19T17:10:12.882Z,-2.01
2022-12-19T17:12:41.706Z,-1.84
2022-12-19T17:15:19.727Z,-2.21
2022-12-19T17:17:47.159Z,-1.89
2022-12-19T17:20:17.841Z,-1.94
2022-12-19T17:22:45.548Z,-2.03
2022-12-19T17:25:23.626Z,-2.00
2022-12-19T17:27:51.016Z,-2.10
2022-12-19T17:30:18.568Z,-2.01
2022-12-19T17:32:48.348Z,-2.15
2022-12-19T17:35:25.849Z,-2.30
2022-12-19T17:37:58.399Z,-2.36
2022-12-19T17:40:31.445Z,-2.18
2022-12-19T17:42:58.903Z,-2.32
2022-12-19T17:45:28.776Z,-2.42
2022-12-19T17:48:02.305Z,-2.20
2022-12-19T17:50:35.368Z,-2.41
2022-12-19T17:53:02.081Z,-2.25
2022-12-19T17:55:30.246Z,-2.31
2022-12-19T17:57:58.245Z,-2.30
2022-12-19T18:00:30.776Z,-2.33
2022-12-19T18:03:01.969Z,-2.36
2022-12-19T18:05:36.074Z,-2.43
2022-12-19T18:08:03.708Z,-2.51
2022-12-19T18:10:31.910Z,-2.57
2022-12-19T18:13:00.185Z,-2.51
2022-12-19T18:15:27.607Z,-2.47
2022-12-19T18:17:55.135Z,-2.57
2022-12-19T18:20:31.982Z,-2.49
2022-12-19T18:23:00.191Z,-2.71
2022-12-19T18:25:29.707Z,-2.86
2022-12-19T18:27:57.144Z,-2.91
2022-12-19T18:30:25.730Z,-3.04
2022-12-19T18:32:58.888Z,-3.13
2022-12-19T18:35:32.640Z,-3.18
2022-12-19T18:38:01.135Z,-3.15
2022-12-19T18:40:31.607Z,-3.17
2022-12-19T18:42:59.156Z,-3.38
2022-12-19T18:45:33.921Z,-3.46
2022-12-19T18:48:02.625Z,-3.47
2022-12-19T18:50:29.619Z,-3.45
2022-12-19T18:52:56.584Z,-3.31
2022-12-19T18:55:26.970Z,-3.46
2022-12-19T18:57:53.614Z,-3.44
2022-12-19T19:00:23.435Z,-3.64
2022-12-19T19:03:01.122Z,-3.58
2022-12-19T19:05:32.895Z,-3.40
2022-12-19T19:08:06.187Z,-3.40
2022-12-19T19:10:32.875Z,-3.56
2022-12-19T19:13:02.701Z,-3.55
2022-12-19T19:15:34.465Z,-3.63
2022-12-19T19:18:04.043Z,-3.71
2022-12-19T19:20:34.821Z,-3.72
2022-12-19T19:23:01.899Z,-3.70
2022-12-19T19:25:28.686Z,-3.73
2022-12-19T19:27:56.271Z,-3.73
2022-12-19T19:30:23.068Z,-3.82
2022-12-19T19:32:55.562Z,-3.93
2022-12-19T19:35:23.482Z,-3.88
2022-12-19T19:37:52.591Z,-3.92
2022-12-19T19:40:19.594Z,-3.98
2022-12-19T19:42:46.400Z,-4.01
2022-12-19T19:45:13.618Z,-4.11
2022-12-19T19:47:42.509Z,-4.05
2022-12-19T19:50:12.138Z,-4.09
2022-12-19T19:52:40.957Z,-4.10
2022-12-19T19:55:09.603Z,-4.24
2022-12-19T19:57:36.676Z,-4.16
2022-12-19T20:00:09.124Z,-4.27
2022-12-19T20:02:36.389Z,-4.24
2022-12-19T20:05:03.555Z,-4.15
2022-12-19T20:07:30.201Z,-4.11
2022-12-19T20:09:56.903Z,-4.26
2022-12-19T20:12:24.137Z,-4.32
2022-12-19T20:14:50.811Z,-4.31
2022-12-19T20:17:17.836Z,-4.26
2022-12-19T20:19:44.722Z,-4.31
2022-12-19T20:22:11.385Z,-4.42
2022-12-19T20:24:38.418Z,-4.46
2022-12-19T20:27:05.035Z,-4.37
2022-12-19T20:29:31.714Z,-4.41
2022-12-19T20:31:58.474Z,-4.51
2022-12-19T20:34:26.004Z,-4.51
2022-12-19T20:36:52.716Z,-4.54
2022-12-19T20:39:22.520Z,-4.57
2022-12-19T20:41:50.908Z,-4.39
2022-12-19T20:44:23.818Z,-4.31
2022-12-19T20:46:53.041Z,-4.27
2022-12-19T20:49:19.791Z,-4.36
2022-12-19T20:51:47.797Z,-4.31
2022-12-19T20:54:15.929Z,-4.53
2022-12-19T20:56:43.079Z,-4.63
2022-12-19T20:59:10.431Z,-4.51
2022-12-19T21:01:38.472Z,-4.60
2022-12-19T21:04:05.777Z,-4.70
2022-12-19T21:06:32.637Z,-4.67
2022-12-19T21:08:59.557Z,-4.65
2022-12-19T21:11:27.826Z,-4.69
2022-12-19T21:13:54.585Z,-4.64
2022-12-19T21:16:22.534Z,-4.64
2022-12-19T21:18:51.164Z,-4.65
2022-12-19T21:21:25.013Z,-4.73
2022-12-19T21:23:52.700Z,-4.61
2022-12-19T21:26:20.375Z,-4.67
2022-12-19T21:28:47.169Z,-4.49
2022-12-19T21:31:22.302Z,-4.27
2022-12-19T21:33:49.947Z,-4.41
2022-12-19T21:36:20.408Z,-4.64
2022-12-19T21:38:49.223Z,-4.53
2022-12-19T21:41:19.388Z,-4.78
2022-12-19T21:43:53.507Z,-4.71
2022-12-19T21:46:23.037Z,-4.85
2022-12-19T21:48:51.944Z,-4.76
2022-12-19T21:51:20.698Z,-4.79
2022-12-19T21:53:47.792Z,-4.83
2022-12-19T21:56:24.760Z,-5.10
2022-12-19T21:58:53.881Z,-5.09
2022-12-19T22:01:21.336Z,-5.17
2022-12-19T22:03:48.244Z,-5.17
2022-12-19T22:06:23.847Z,-5.34
2022-12-19T22:08:53.870Z,-5.18
2022-12-19T22:11:21.710Z,-5.20
2022-12-19T22:13:49.473Z,-5.20
2022-12-19T22:16:16.659Z,-5.23
2022-12-19T22:18:43.758Z,-5.17
2022-12-19T22:21:12.466Z,-5.32
2022-12-19T22:23:39.273Z,-5.41
2022-12-19T22:26:16.812Z,-5.29
2022-12-19T22:28:46.283Z,-5.30
2022-12-19T22:31:20.523Z,-5.40
2022-12-19T22:33:48.666Z,-5.43
2022-12-19T22:36:18.432Z,-5.41
2022-12-19T22:38:49.885Z,-5.31
2022-12-19T22:41:18.570Z,-5.36
2022-12-19T22:43:46.476Z,-5.29
2022-12-19T22:46:28.692Z,-5.33
2022-12-19T22:48:57.762Z,-5.34
2022-12-19T22:51:25.515Z,-5.17
2022-12-19T22:53:52.796Z,-5.25
2022-12-19T22:56:22.600Z,-5.10
2022-12-19T22:58:52.941Z,-5.00
2022-12-19T23:01:24.313Z,-5.04
2022-12-19T23:03:53.408Z,-5.11
2022-12-19T23:06:20.803Z,-5.15
2022-12-19T23:08:48.196Z,-5.00
2022-12-19T23:11:21.798Z,-5.01
2022-12-19T23:13:50.113Z,-5.12
2022-12-19T23:16:17.274Z,-4.94
2022-12-19T23:18:44.202Z,-4.98
2022-12-19T23:21:14.738Z,-4.88
2022-12-19T23:23:42.935Z,-5.20
2022-12-19T23:26:15.755Z,-5.03
2022-12-19T23:28:44.556Z,-5.04
2022-12-19T23:31:13.541Z,-4.78
2022-12-19T23:33:40.309Z,-4.98
2022-12-19T23:36:07.813Z,-5.08
2022-12-19T23:38:34.531Z,-4.89
2022-12-19T23:41:09.347Z,-4.87
2022-12-19T23:43:37.350Z,-4.78
2022-12-19T23:46:09.672Z,-4.99
2022-12-19T23:48:36.739Z,-5.23
2022-12-19T23:51:06.572Z,-5.04
2022-12-19T23:53:34.333Z,-4.91
2022-12-19T23:56:03.948Z,-5.00
2022-12-19T23:58:30.616Z,-5.13
